createdAt,value
2017-06-11T00:00:41.568Z,7.40
2017-06-11T00:03:09.063Z,7.45
2017-06-11T00:05:36.664Z,7.85
2017-06-11T00:08:04.183Z,7.50
2017-06-11T00:10:31.719Z,7.53
2017-06-11T00:12:59.235Z,7.28
2017-06-11T00:15:26.732Z,7.70
2017-06-11T00:17:54.269Z,6.50
2017-06-11T00:20:21.879Z,7.72
2017-06-11T00:22:49.448Z,6.90
2017-06-11T00:25:16.943Z,7.50
2017-06-11T00:27:44.509Z,7.62
2017-06-11T00:30:12.045Z,8.63
2017-06-11T00:32:39.534Z,8.32
2017-06-11T00:35:07.076Z,8.32
2017-06-11T00:37:34.565Z,8.63
2017-06-11T00:40:02.085Z,7.95
2017-06-11T00:42:29.579Z,8.52
2017-06-11T00:44:57.884Z,8.20
2017-06-11T00:47:25.439Z,7.70
2017-06-11T00:49:53.052Z,8.68
2017-06-11T00:52:20.560Z,8.88
2017-06-11T00:54:48.108Z,7.90
2017-06-11T00:57:15.672Z,8.73
2017-06-11T00:59:43.167Z,8.05
2017-06-11T01:02:10.701Z,7.28
2017-06-11T01:04:38.207Z,7.72
2017-06-11T01:07:06.744Z,7.75
2017-06-11T01:09:34.235Z,8.13
2017-06-11T01:12:02.086Z,8.45
2017-06-11T01:14:29.582Z,8.18
2017-06-11T01:16:57.143Z,8.07
2017-06-11T01:19:24.692Z,9.15
2017-06-11T01:21:52.239Z,8.05
2017-06-11T01:24:19.775Z,9.57
2017-06-11T01:26:47.517Z,8.55
2017-06-11T01:29:15.747Z,8.30
2017-06-11T01:31:43.290Z,7.65
2017-06-11T01:34:10.853Z,7.82
2017-06-11T01:36:39.112Z,8.70
2017-06-11T01:39:06.652Z,7.85
2017-06-11T01:41:34.401Z,7.68
2017-06-11T01:44:02.158Z,8.68
2017-06-11T01:46:29.729Z,7.10
2017-06-11T01:48:57.292Z,7.93
2017-06-11T01:51:25.036Z,8.18
2017-06-11T01:53:52.591Z,8.25
2017-06-11T01:56:20.379Z,8.25
2017-06-11T01:58:47.927Z,7.95
2017-06-11T02:01:15.436Z,7.85
2017-06-11T02:03:42.944Z,7.53
2017-06-11T02:06:10.464Z,8.45
2017-06-11T02:08:37.995Z,7.70
2017-06-11T02:11:05.800Z,7.90
2017-06-11T02:13:33.346Z,7.28
2017-06-11T02:16:00.837Z,8.88
2017-06-11T02:18:28.357Z,9.27
2017-06-11T02:20:55.891Z,8.52
2017-06-11T02:23:23.435Z,7.10
2017-06-11T02:25:50.947Z,7.00
2017-06-11T02:28:18.684Z,7.62
2017-06-11T02:30:46.229Z,6.47
2017-06-11T02:33:13.719Z,6.80
2017-06-11T02:35:41.579Z,6.47
2017-06-11T02:38:09.095Z,7.03
2017-06-11T02:40:36.659Z,6.85
2017-06-11T02:43:04.154Z,6.50
2017-06-11T02:45:31.673Z,6.53
2017-06-11T02:47:59.469Z,6.30
2017-06-11T02:50:26.994Z,7.12
2017-06-11T02:52:54.790Z,5.95
2017-06-11T02:55:22.367Z,6.07
2017-06-11T02:57:49.900Z,6.95
2017-06-11T03:00:17.615Z,7.30
2017-06-11T03:02:45.437Z,6.75
2017-06-11T03:05:12.947Z,6.57
2017-06-11T03:07:40.443Z,7.65
2017-06-11T03:10:08.303Z,7.10
2017-06-11T03:12:35.796Z,7.00
2017-06-11T03:15:03.337Z,7.32
2017-06-11T03:17:30.889Z,6.25
2017-06-11T03:19:58.378Z,6.50
2017-06-11T03:22:25.923Z,6.47
2017-06-11T03:24:53.412Z,6.40
2017-06-11T03:27:20.920Z,6.30
2017-06-11T03:29:48.439Z,5.87
2017-06-11T03:32:15.987Z,6.28
2017-06-11T03:34:43.800Z,6.97
2017-06-11T03:37:11.640Z,7.07
2017-06-11T03:39:39.179Z,7.40
2017-06-11T03:42:06.958Z,6.30
2017-06-11T03:44:34.467Z,6.55
2017-06-11T03:47:03.023Z,6.80
2017-06-11T03:49:30.527Z,7.55
2017-06-11T03:51:58.071Z,7.85
2017-06-11T03:54:25.623Z,6.40
2017-06-11T03:56:53.907Z,6.95
2017-06-11T03:59:21.455Z,8.07
2017-06-11T04:01:48.989Z,7.15
2017-06-11T04:04:16.511Z,6.75
2017-06-11T04:06:44.072Z,6.85
2017-06-11T04:09:11.577Z,7.30
2017-06-11T04:11:39.159Z,6.35
2017-06-11T04:14:06.740Z,6.55
2017-06-11T04:16:34.284Z,6.78
2017-06-11T04:19:01.779Z,6.95
2017-06-11T04:21:29.324Z,6.82
2017-06-11T04:23:56.827Z,6.35
2017-06-11T04:26:25.087Z,7.03
2017-06-11T04:28:52.595Z,6.20
2017-06-11T04:31:20.116Z,7.10
2017-06-11T04:33:48.395Z,6.12
2017-06-11T04:36:15.929Z,6.03
2017-06-11T04:38:43.497Z,6.57
2017-06-11T04:41:10.999Z,5.97
2017-06-11T04:43:38.512Z,5.47
2017-06-11T04:46:06.800Z,6.57
2017-06-11T04:48:34.291Z,5.97
2017-06-11T04:51:02.071Z,6.00
2017-06-11T04:53:29.607Z,5.72
2017-06-11T04:55:57.157Z,6.43
2017-06-11T04:58:24.671Z,6.05
2017-06-11T05:00:52.188Z,6.57
2017-06-11T05:03:19.728Z,6.05
2017-06-11T05:05:47.247Z,5.50
2017-06-11T05:08:15.771Z,5.53
2017-06-11T05:10:43.570Z,5.20
2017-06-11T05:13:11.106Z,5.07
2017-06-11T05:15:38.651Z,4.50
2017-06-11T05:18:06.219Z,4.30
2017-06-11T05:20:34.070Z,4.05
2017-06-11T05:23:01.574Z,3.67
2017-06-11T05:25:29.752Z,3.40
2017-06-11T05:27:57.664Z,3.53
2017-06-11T05:30:25.152Z,2.65
2017-06-11T05:32:52.646Z,2.65
2017-06-11T05:35:20.202Z,2.40
2017-06-11T05:37:47.693Z,2.67
2017-06-11T05:40:15.228Z,2.47
2017-06-11T05:42:42.780Z,2.80
2017-06-11T05:45:10.331Z,2.63
2017-06-11T05:47:38.127Z,2.30
2017-06-11T05:50:05.647Z,2.20
2017-06-11T05:52:33.208Z,2.60
2017-06-11T05:55:00.752Z,2.70
2017-06-11T05:57:28.252Z,2.30
2017-06-11T05:59:56.012Z,2.23
2017-06-11T06:02:23.884Z,2.37
2017-06-11T06:04:51.405Z,1.90
2017-06-11T06:07:18.917Z,2.23
2017-06-11T06:09:46.404Z,2.30
2017-06-11T06:12:14.208Z,2.07
2017-06-11T06:14:42.084Z,2.10
2017-06-11T06:17:09.659Z,2.10
2017-06-11T06:19:37.199Z,2.70
2017-06-11T06:22:04.693Z,2.40
2017-06-11T06:24:32.236Z,1.93
2017-06-11T06:26:59.752Z,2.20
2017-06-11T06:29:27.524Z,2.00
2017-06-11T06:31:55.154Z,2.37
2017-06-11T06:34:22.676Z,2.07
2017-06-11T06:36:50.520Z,2.00
2017-06-11T06:39:18.371Z,1.40
2017-06-11T06:41:46.232Z,2.00
2017-06-11T06:44:13.726Z,2.40
2017-06-11T06:46:41.250Z,1.63
2017-06-11T06:49:08.808Z,1.63
2017-06-11T06:51:36.349Z,1.90
2017-06-11T06:54:03.889Z,1.57
2017-06-11T06:56:31.464Z,1.93
2017-06-11T06:58:58.971Z,2.40
2017-06-11T07:01:26.451Z,1.90
2017-06-11T07:03:54.451Z,2.67
2017-06-11T07:06:22.212Z,1.23
2017-06-11T07:08:49.724Z,1.40
2017-06-11T07:11:17.238Z,1.43
2017-06-11T07:13:48.885Z,1.40
2017-06-11T07:16:16.425Z,1.67
2017-06-11T07:18:43.974Z,1.17
2017-06-11T07:21:11.766Z,1.10
2017-06-11T07:23:39.291Z,0.90
2017-06-11T07:26:07.179Z,1.00
2017-06-11T07:28:34.695Z,1.03
2017-06-11T07:31:02.495Z,1.13
2017-06-11T07:33:30.259Z,1.20
2017-06-11T07:35:58.124Z,1.10
2017-06-11T07:38:25.615Z,1.00
2017-06-11T07:40:53.132Z,0.93
2017-06-11T07:43:20.638Z,1.40
2017-06-11T07:45:48.146Z,0.80
2017-06-11T07:48:15.652Z,0.90
2017-06-11T07:50:43.180Z,1.73
2017-06-11T07:53:10.693Z,1.00
2017-06-11T07:55:38.199Z,0.80
2017-06-11T07:58:05.719Z,1.20
2017-06-11T08:00:33.267Z,0.90
2017-06-11T08:03:00.760Z,1.13
2017-06-11T08:05:28.295Z,1.10
2017-06-11T08:07:55.958Z,0.90
2017-06-11T08:10:23.476Z,0.97
2017-06-11T08:12:52.099Z,1.00
2017-06-11T08:15:19.578Z,1.10
2017-06-11T08:17:47.116Z,0.80
2017-06-11T08:20:14.661Z,1.23
2017-06-11T08:22:42.198Z,0.93
2017-06-11T08:25:10.016Z,1.13
2017-06-11T08:27:37.567Z,1.20
2017-06-11T08:30:05.134Z,1.30
2017-06-11T08:32:32.704Z,1.10
2017-06-11T08:35:00.187Z,1.23
2017-06-11T08:37:27.903Z,1.10
2017-06-11T08:39:55.402Z,1.40
2017-06-11T08:42:23.936Z,1.23
2017-06-11T08:44:51.437Z,1.30
2017-06-11T08:47:19.775Z,0.90
2017-06-11T08:49:47.283Z,1.43
2017-06-11T08:52:14.775Z,1.00
2017-06-11T08:54:42.301Z,1.17
2017-06-11T08:57:09.838Z,1.33
2017-06-11T08:59:37.341Z,1.43
2017-06-11T09:02:04.908Z,1.60
2017-06-11T09:04:32.650Z,1.00
2017-06-11T09:07:00.545Z,1.40
2017-06-11T09:09:28.087Z,1.20
2017-06-11T09:11:55.638Z,1.27
2017-06-11T09:14:24.668Z,1.10
2017-06-11T09:16:55.463Z,1.20
2017-06-11T09:19:22.996Z,1.00
2017-06-11T09:21:50.483Z,1.40
2017-06-11T09:24:17.994Z,1.17
2017-06-11T09:26:45.507Z,1.00
2017-06-11T09:29:13.032Z,1.00
2017-06-11T09:31:40.795Z,1.23
2017-06-11T09:34:08.308Z,1.60
2017-06-11T09:36:37.162Z,1.40
2017-06-11T09:39:05.010Z,1.27
2017-06-11T09:41:32.559Z,1.00
2017-06-11T09:44:00.104Z,1.60
2017-06-11T09:46:27.693Z,1.20
2017-06-11T09:48:55.227Z,1.37
2017-06-11T09:51:22.750Z,1.40
2017-06-11T09:53:50.256Z,1.30
2017-06-11T09:56:17.784Z,1.20
2017-06-11T09:58:45.283Z,1.30
2017-06-11T10:01:12.808Z,1.30
2017-06-11T10:03:40.378Z,1.10
2017-06-11T10:06:07.863Z,1.33
2017-06-11T10:08:35.475Z,1.08
2017-06-11T10:11:03.255Z,1.40
2017-06-11T10:13:30.771Z,1.40
2017-06-11T10:15:58.269Z,1.37
2017-06-11T10:18:25.783Z,1.20
2017-06-11T10:20:53.652Z,1.48
2017-06-11T10:23:21.182Z,1.20
2017-06-11T10:25:48.672Z,1.40
2017-06-11T10:28:16.172Z,1.55
2017-06-11T10:30:43.727Z,2.00
2017-06-11T10:33:11.394Z,1.60
2017-06-11T10:35:39.137Z,1.20
2017-06-11T10:38:06.637Z,1.12
2017-06-11T10:40:34.209Z,1.27
2017-06-11T10:43:02.475Z,1.12
2017-06-11T10:45:30.141Z,1.15
2017-06-11T10:47:57.737Z,1.23
2017-06-11T10:50:25.608Z,1.23
2017-06-11T10:52:53.903Z,1.10
2017-06-11T10:55:21.425Z,1.17
2017-06-11T10:57:48.976Z,1.20
2017-06-11T11:00:16.528Z,1.40
2017-06-11T11:02:44.399Z,1.30
2017-06-11T11:05:11.900Z,1.50
2017-06-11T11:07:39.740Z,1.05
2017-06-11T11:10:07.227Z,1.12
2017-06-11T11:12:34.743Z,1.42
2017-06-11T11:15:02.301Z,1.20
2017-06-11T11:17:29.804Z,1.20
2017-06-11T11:19:57.326Z,1.10
2017-06-11T11:22:24.833Z,1.10
2017-06-11T11:24:52.355Z,1.42
2017-06-11T11:27:20.035Z,1.10
2017-06-11T11:29:48.675Z,1.40
2017-06-11T11:32:16.235Z,1.23
2017-06-11T11:34:43.788Z,1.10
2017-06-11T11:37:12.274Z,1.10
2017-06-11T11:39:39.778Z,1.27
2017-06-11T11:42:07.322Z,1.45
2017-06-11T11:44:34.831Z,0.90
2017-06-11T11:47:02.322Z,1.25
2017-06-11T11:49:29.840Z,1.30
2017-06-11T11:51:57.397Z,1.23
2017-06-11T11:54:24.957Z,1.48
2017-06-11T11:56:52.733Z,1.10
2017-06-11T11:59:20.594Z,0.90
2017-06-11T12:01:48.530Z,0.98
2017-06-11T12:04:16.062Z,1.23
2017-06-11T12:06:43.660Z,1.30
2017-06-11T12:09:11.601Z,1.10
2017-06-11T12:11:39.151Z,1.20
2017-06-11T12:14:06.651Z,1.00
2017-06-11T12:16:34.524Z,1.00
2017-06-11T12:19:02.058Z,1.08
2017-06-11T12:21:29.839Z,1.50
2017-06-11T12:23:57.604Z,0.95
2017-06-11T12:26:25.467Z,1.23
2017-06-11T12:28:52.967Z,1.40
2017-06-11T12:31:20.460Z,1.40
2017-06-11T12:33:48.238Z,1.15
2017-06-11T12:36:15.846Z,1.73
2017-06-11T12:38:43.385Z,1.23
2017-06-11T12:41:11.672Z,1.70
2017-06-11T12:43:40.231Z,1.30
2017-06-11T12:46:07.768Z,1.37
2017-06-11T12:48:35.370Z,1.50
2017-06-11T12:51:03.635Z,1.30
2017-06-11T12:53:31.127Z,1.50
2017-06-11T12:55:59.203Z,1.13
2017-06-11T12:58:26.762Z,1.20
2017-06-11T13:00:54.804Z,1.20
2017-06-11T13:03:22.365Z,1.90
2017-06-11T13:05:50.265Z,1.60
2017-06-11T13:08:18.048Z,1.67
2017-06-11T13:10:45.616Z,1.70
2017-06-11T13:13:13.927Z,1.40
2017-06-11T13:15:41.508Z,1.50
2017-06-11T13:18:09.501Z,1.80
2017-06-11T13:20:37.058Z,1.70
2017-06-11T13:23:04.634Z,1.62
2017-06-11T13:25:32.128Z,1.50
2017-06-11T13:27:59.675Z,1.45
2017-06-11T13:30:28.544Z,1.45
2017-06-11T13:32:56.093Z,1.93
2017-06-11T13:35:23.633Z,1.43
2017-06-11T13:37:51.390Z,1.57
2017-06-11T13:40:18.896Z,1.23
2017-06-11T13:42:47.183Z,1.50
2017-06-11T13:45:14.691Z,1.47
2017-06-11T13:47:42.171Z,1.60
2017-06-11T13:50:09.718Z,1.87
2017-06-11T13:52:37.319Z,1.60
2017-06-11T13:55:05.223Z,1.30
2017-06-11T13:57:32.736Z,1.77
2017-06-11T14:00:00.263Z,1.80
2017-06-11T14:02:28.811Z,1.60
2017-06-11T14:04:56.574Z,1.50
2017-06-11T14:07:24.093Z,1.45
2017-06-11T14:09:51.593Z,1.80
2017-06-11T14:12:19.448Z,1.70
2017-06-11T14:14:46.995Z,2.50
2017-06-11T14:17:14.483Z,1.77
2017-06-11T14:19:42.020Z,1.27
2017-06-11T14:22:09.564Z,1.40
2017-06-11T14:24:37.120Z,1.70
2017-06-11T14:27:04.649Z,1.73
2017-06-11T14:29:32.200Z,1.50
2017-06-11T14:31:59.728Z,1.20
2017-06-11T14:34:27.284Z,1.90
2017-06-11T14:36:54.834Z,1.70
2017-06-11T14:39:22.323Z,1.30
2017-06-11T14:41:50.753Z,1.60
2017-06-11T14:44:18.271Z,1.10
2017-06-11T14:46:45.853Z,1.40
2017-06-11T14:49:13.347Z,1.77
2017-06-11T14:51:40.879Z,1.67
2017-06-11T14:54:08.373Z,1.30
2017-06-11T14:56:35.934Z,1.30
2017-06-11T14:59:03.464Z,1.33
2017-06-11T15:01:30.958Z,1.20
2017-06-11T15:03:58.729Z,1.47
2017-06-11T15:06:26.259Z,1.50
2017-06-11T15:08:54.015Z,1.17
2017-06-11T15:11:21.548Z,1.27
2017-06-11T15:13:49.197Z,1.20
2017-06-11T15:16:17.639Z,1.30
2017-06-11T15:18:45.301Z,1.80
2017-06-11T15:21:12.907Z,1.60
2017-06-11T15:23:40.476Z,1.00
2017-06-11T15:26:08.220Z,1.67
2017-06-11T15:28:35.795Z,1.60
2017-06-11T15:31:03.589Z,1.37
2017-06-11T15:33:31.404Z,1.80
2017-06-11T15:35:58.931Z,1.50
2017-06-11T15:38:27.054Z,1.47
2017-06-11T15:40:54.690Z,1.53
2017-06-11T15:43:22.194Z,1.45
2017-06-11T15:45:50.173Z,1.40
2017-06-11T15:48:18.615Z,1.60
2017-06-11T15:50:46.529Z,1.23
2017-06-11T15:53:14.054Z,2.23
2017-06-11T15:55:42.689Z,1.10
2017-06-11T15:58:10.388Z,1.60
2017-06-11T16:00:38.811Z,1.50
2017-06-11T16:03:06.700Z,1.60
2017-06-11T16:05:34.341Z,1.50
2017-06-11T16:08:01.884Z,1.20
2017-06-11T16:10:29.542Z,1.47
2017-06-11T16:12:57.039Z,1.50
2017-06-11T16:15:24.575Z,1.73
2017-06-11T16:17:52.118Z,2.13
2017-06-11T16:20:19.877Z,1.63
2017-06-11T16:22:47.528Z,1.10
2017-06-11T16:25:15.407Z,1.40
2017-06-11T16:27:44.408Z,1.80
2017-06-11T16:30:11.942Z,39.17
2017-06-11T16:32:39.951Z,12.90
2017-06-11T16:35:07.475Z,1.97
2017-06-11T16:37:36.988Z,1.30
2017-06-11T16:40:04.652Z,8.87
2017-06-11T16:42:32.209Z,6.47
2017-06-11T16:44:59.785Z,1.80
2017-06-11T16:47:27.386Z,2.03
2017-06-11T16:49:54.981Z,1.55
2017-06-11T16:52:22.569Z,2.45
2017-06-11T16:54:50.107Z,1.87
2017-06-11T16:57:17.603Z,2.17
2017-06-11T16:59:45.118Z,1.80
2017-06-11T17:02:12.887Z,1.83
2017-06-11T17:04:40.468Z,1.83
2017-06-11T17:07:08.038Z,2.20
2017-06-11T17:09:35.659Z,1.70
2017-06-11T17:12:03.261Z,2.65
2017-06-11T17:14:30.911Z,2.28
2017-06-11T17:16:58.430Z,1.77
2017-06-11T17:19:25.971Z,1.70
2017-06-11T17:21:53.740Z,3.40
2017-06-11T17:24:25.029Z,2.10
2017-06-11T17:26:53.006Z,1.60
2017-06-11T17:29:20.548Z,2.20
2017-06-11T17:31:48.564Z,2.35
2017-06-11T17:34:16.081Z,2.90
2017-06-11T17:36:43.638Z,3.00
2017-06-11T17:39:11.186Z,2.25
2017-06-11T17:41:38.674Z,3.00
2017-06-11T17:44:06.213Z,1.83
2017-06-11T17:46:34.044Z,1.90
2017-06-11T17:49:01.539Z,1.92
2017-06-11T17:51:29.119Z,1.73
2017-06-11T17:53:57.673Z,2.03
2017-06-11T17:56:25.184Z,2.30
2017-06-11T17:58:52.717Z,1.65
2017-06-11T18:01:20.415Z,1.60
2017-06-11T18:03:47.971Z,1.40
2017-06-11T18:06:15.834Z,1.83
2017-06-11T18:08:43.439Z,2.00
2017-06-11T18:11:10.936Z,2.05
2017-06-11T18:13:38.811Z,1.62
2017-06-11T18:16:06.469Z,1.90
2017-06-11T18:18:34.024Z,1.87
2017-06-11T18:21:01.542Z,1.90
2017-06-11T18:23:29.087Z,1.85
2017-06-11T18:25:56.599Z,1.98
2017-06-11T18:28:24.463Z,1.50
2017-06-11T18:30:51.955Z,1.95
2017-06-11T18:33:19.884Z,2.12
2017-06-11T18:35:47.569Z,2.37
2017-06-11T18:38:15.116Z,1.90
2017-06-11T18:40:42.858Z,1.85
2017-06-11T18:43:10.625Z,2.10
2017-06-11T18:45:38.345Z,2.30
2017-06-11T18:48:05.858Z,2.20
2017-06-11T18:50:33.452Z,2.25
2017-06-11T18:53:01.005Z,1.70
2017-06-11T18:55:28.541Z,2.10
2017-06-11T18:57:56.072Z,2.70
2017-06-11T19:00:23.584Z,2.00
2017-06-11T19:02:51.186Z,2.08
2017-06-11T19:05:18.702Z,2.92
2017-06-11T19:07:46.235Z,2.05
2017-06-11T19:10:14.073Z,2.45
2017-06-11T19:12:41.679Z,2.12
2017-06-11T19:15:09.970Z,2.05
2017-06-11T19:17:37.700Z,1.90
2017-06-11T19:20:05.365Z,2.03
2017-06-11T19:22:32.886Z,2.15
2017-06-11T19:25:00.451Z,2.22
2017-06-11T19:27:28.130Z,2.00
2017-06-11T19:29:55.741Z,2.15
2017-06-11T19:32:23.223Z,2.25
2017-06-11T19:34:50.718Z,2.03
2017-06-11T19:37:19.000Z,2.30
2017-06-11T19:39:46.495Z,2.35
2017-06-11T19:42:14.011Z,2.30
2017-06-11T19:44:41.507Z,2.47
2017-06-11T19:47:09.130Z,2.00
2017-06-11T19:49:36.655Z,2.85
2017-06-11T19:52:04.252Z,2.60
2017-06-11T19:54:31.746Z,2.45
2017-06-11T19:56:59.320Z,2.40
2017-06-11T19:59:26.891Z,3.23
2017-06-11T20:01:54.411Z,2.60
2017-06-11T20:04:21.971Z,2.67
2017-06-11T20:06:49.826Z,2.50
2017-06-11T20:09:18.090Z,2.30
2017-06-11T20:11:45.659Z,3.03
2017-06-11T20:14:13.293Z,2.97
2017-06-11T20:16:40.852Z,2.65
2017-06-11T20:19:08.511Z,3.00
2017-06-11T20:21:36.311Z,2.60
2017-06-11T20:24:03.799Z,2.45
2017-06-11T20:26:31.305Z,2.45
2017-06-11T20:28:58.795Z,2.62
2017-06-11T20:31:26.349Z,2.53
2017-06-11T20:33:53.916Z,2.20
2017-06-11T20:36:21.409Z,2.60
2017-06-11T20:38:49.044Z,2.10
2017-06-11T20:41:16.735Z,2.10
2017-06-11T20:43:44.263Z,2.15
2017-06-11T20:46:11.751Z,2.90
2017-06-11T20:48:39.312Z,2.00
2017-06-11T20:51:06.866Z,2.20
2017-06-11T20:53:35.968Z,2.40
2017-06-11T20:56:03.552Z,2.10
2017-06-11T20:58:31.745Z,1.70
2017-06-11T21:00:59.275Z,1.75
2017-06-11T21:03:26.846Z,1.70
2017-06-11T21:05:54.494Z,1.85
2017-06-11T21:08:22.012Z,1.73
2017-06-11T21:10:49.931Z,1.98
2017-06-11T21:13:17.447Z,2.03
2017-06-11T21:15:45.022Z,2.75
2017-06-11T21:18:12.795Z,1.80
2017-06-11T21:20:40.320Z,2.15
2017-06-11T21:23:08.108Z,1.90
2017-06-11T21:25:35.595Z,1.77
2017-06-11T21:28:03.103Z,1.92
2017-06-11T21:30:30.668Z,1.95
2017-06-11T21:32:58.234Z,1.80
2017-06-11T21:35:25.774Z,1.92
2017-06-11T21:37:53.326Z,2.45
2017-06-11T21:40:20.896Z,1.75
2017-06-11T21:42:48.439Z,1.73
2017-06-11T21:45:15.951Z,2.00
2017-06-11T21:47:43.443Z,1.70
2017-06-11T21:50:11.335Z,1.70
2017-06-11T21:52:38.979Z,2.10
2017-06-11T21:55:06.579Z,1.50
2017-06-11T21:57:34.519Z,2.10
2017-06-11T22:00:02.158Z,1.70
2017-06-11T22:02:30.043Z,1.67
2017-06-11T22:04:57.603Z,2.22
2017-06-11T22:07:25.186Z,2.30
2017-06-11T22:09:53.116Z,2.10
2017-06-11T22:12:21.001Z,2.25
2017-06-11T22:14:48.856Z,1.92
2017-06-11T22:17:16.404Z,2.20
2017-06-11T22:19:43.919Z,2.50
2017-06-11T22:22:11.759Z,2.00
2017-06-11T22:24:39.442Z,2.05
2017-06-11T22:27:07.413Z,1.52
2017-06-11T22:29:34.951Z,1.95
2017-06-11T22:32:02.809Z,2.65
2017-06-11T22:34:30.403Z,3.05
2017-06-11T22:36:57.896Z,1.90
2017-06-11T22:39:25.406Z,2.78
2017-06-11T22:41:53.663Z,2.20
2017-06-11T22:44:21.319Z,2.40
2017-06-11T22:46:48.848Z,2.50
2017-06-11T22:49:16.343Z,2.33
2017-06-11T22:51:43.944Z,2.58
2017-06-11T22:54:11.495Z,2.30
2017-06-11T22:56:39.071Z,2.28
2017-06-11T22:59:06.596Z,2.20
2017-06-11T23:01:34.394Z,2.28
2017-06-11T23:04:02.029Z,2.17
2017-06-11T23:06:29.964Z,2.75
2017-06-11T23:08:57.454Z,2.80
2017-06-11T23:11:24.952Z,2.90
2017-06-11T23:13:52.525Z,2.30
2017-06-11T23:16:20.899Z,1.70
2017-06-11T23:18:48.623Z,2.00
2017-06-11T23:21:16.221Z,2.05
2017-06-11T23:23:43.755Z,2.30
2017-06-11T23:26:11.535Z,2.22
2017-06-11T23:28:39.090Z,2.12
2017-06-11T23:31:06.899Z,2.40
2017-06-11T23:39:15.589Z,2.30
2017-06-11T23:55:55.728Z,2.47
2017-06-11T23:58:23.571Z,2.28
